Juanita, Washington
Current Conditions -  °F | °C
As of 9:53 PM on Tuesday 25 Nov 2014 (Local Time) from KBFI Reporting Station
Overcast Overcast  
Wind Chill: 59°   Ceiling: 7000
Heat Index: 59°   Visibility: 10mi
Dew Point: 52°   Wind: 13mph
Humidity: 78%   Direction: 180°S
Pressure: 30.15"   Gusts: 26mph
Location:  47.7179°N, 122.204°W
Report Text: KBFI 260553Z 18011G23KT 10SM SCT021 OVC070 15/11 A3015 RMK AO2 SLP210 60000 T01500111 10156 20111 53003
Loading
Personal Weather Stations






























Interactive Weather Map New forecast layout! Learn more

10-Day Weather Forecast

Advertisements
Track Severe Weather on mobile